Aeroporto :







RITROVATECI SU...

 
LOGIN :

Iscrizione | Disclaimer

   EN    FR    IT 

 









Sommario :    VFR   VFR Marginale   IFR   IFR Intensivo   IFR Molto Intensivo
Visibilità : 
Base nubi : 
>= 8 km
>= 3000ft
5 / 8 km
1000 / 3000 ft
1500m / 5 km
500 / 1000 ft
800 / 1500m
200 / 500 ft
< 800m
< 200 ft
Simboli :   Temporali  Nebbia  Neve Forte  Precipitazioni Forti  Vento > 20 kt






- Altitudine del aeroporto : 192 ft
- Codice IATA : BGR


KBGR - Bangor International

ULTIMO METAR :
  • 211553Z VRB03KT 10SM CLR M10/M21 A3041 RMK AO2 SLP304 T11001211

METARs OBSOLETI :
  • 211453Z VRB03KT 10SM CLR M12/M22 A3043 RMK AO2 SLP311 T11171217 58003
  • 211353Z 27005KT 10SM CLR M14/M22 A3044 RMK AO2 SLP315 T11441222

TAF KBGR
Valido dal 21 a 12 ore il 22 a 12 ore UTC


211120Z 2112/2212 VRB02KT P6SM SKC
FM211700 22007G13KT P6SM FEW080
FM220000 VRB03KT P6SM FEW080



MetMap, La meteo Aeronautica in un colpo d'occhio ! - Copyright ORBIFLY Dicembre 2007 - Disclaimer

ORBIFLY MET'MAP TEAM :

Programmazione e sviluppo : Alexandra Zaïnal
Concezione : Baudouin d'Aumeries
Aiuto per la programmazione : Marc-Olivier Méhu
Supporto tecnico e logistico : Manuel Goepfert
Aiuto per la traduzione : Arnaldo La Scala

Contatto : metmap@orbifly.com




FONTI E CREDITI :

   NOAA